Time;durP1;ratioP1;P1;durP2;ratioP2;P2;SDS_P1;SDS_P2;PMS_P1;PMS_P2;Temp;Humidity;BMP_temperature;BMP_pressure;BME280_temperature;BME280_humidity;BME280_pressure;Samples;Min_cycle;Max_cycle;Signal;HPM_P1;HPM_P2
2022/04/09 00:02:21;;;;;;;11.85;6.32;;;;;;;11.93;nan;99189.88;5013167;28;20034;-69
2022/04/09 00:04:47;;;;;;;17.65;7.03;;;;;;;11.90;nan;99185.91;5010786;28;20117;-69
2022/04/09 00:07:13;;;;;;;14.40;7.18;;;;;;;11.96;nan;99205.16;5012251;28;20092;-68
2022/04/09 00:09:39;;;;;;;13.68;7.45;;;;;;;11.91;nan;99205.16;5007318;28;20030;-69
2022/04/09 00:12:05;;;;;;;14.95;7.45;;;;;;;11.79;nan;99186.91;5004642;28;20026;-69
2022/04/09 00:14:30;;;;;;;20.35;8.00;;;;;;;11.74;nan;99178.22;5012110;28;20118;-69
2022/04/09 00:16:55;;;;;;;12.82;7.20;;;;;;;11.70;nan;99193.75;5010791;28;20034;-68
2022/04/09 00:19:21;;;;;;;20.60;7.93;;;;;;;11.64;nan;99200.88;5012885;28;20104;-68
2022/04/09 00:21:46;;;;;;;16.30;7.93;;;;;;;11.57;nan;99197.69;5012921;28;20072;-69
2022/04/09 00:24:12;;;;;;;14.02;7.88;;;;;;;11.43;nan;99186.84;5011132;28;20042;-69
2022/04/09 00:26:38;;;;;;;15.50;8.25;;;;;;;11.36;nan;99191.59;5012156;28;20494;-69
2022/04/09 00:29:04;;;;;;;13.35;7.70;;;;;;;11.28;nan;99186.81;5012531;28;20111;-69
2022/04/09 00:31:29;;;;;;;12.90;7.63;;;;;;;11.25;nan;99185.50;5012429;28;20476;-69
2022/04/09 00:33:55;;;;;;;16.90;8.32;;;;;;;11.23;nan;99184.19;5011528;28;20389;-68
2022/04/09 00:36:20;;;;;;;13.82;7.68;;;;;;;11.05;nan;99161.72;5011927;28;20046;-69
2022/04/09 00:38:46;;;;;;;16.20;7.72;;;;;;;11.17;nan;99185.97;5011892;28;20033;-69
2022/04/09 00:41:12;;;;;;;13.77;7.97;;;;;;;11.05;nan;99172.25;5012238;28;20120;-69
2022/04/09 00:43:42;;;;;;;11.40;7.65;;;;;;;11.06;nan;99173.81;5012172;28;20479;-70
2022/04/09 00:46:11;;;;;;;18.58;8.23;;;;;;;11.07;nan;99172.78;5011702;28;20117;-68
2022/04/09 00:48:37;;;;;;;15.63;8.25;;;;;;;11.06;nan;99177.25;5009973;28;20040;-68
2022/04/09 00:51:04;;;;;;;17.85;8.63;;;;;;;11.02;nan;99172.75;5011295;28;20491;-68
2022/04/09 00:53:39;;;;;;;14.68;8.25;;;;;;;10.95;nan;99157.19;5012222;28;20064;-68
2022/04/09 00:56:15;;;;;;;16.77;8.15;;;;;;;11.04;nan;99163.56;5011545;28;20640;-69
2022/04/09 00:58:55;;;;;;;15.93;7.93;;;;;;;11.05;nan;99165.13;5011790;28;20037;-69
2022/04/09 01:01:23;;;;;;;16.85;7.70;;;;;;;11.03;nan;99164.59;5009551;28;20030;-69
2022/04/09 01:03:52;;;;;;;16.17;8.30;;;;;;;11.08;nan;99163.81;5015688;28;20417;-69
2022/04/09 01:06:18;;;;;;;14.10;8.70;;;;;;;11.03;nan;99159.31;5023994;28;20112;-68
2022/04/09 01:08:44;;;;;;;12.30;8.30;;;;;;;11.01;nan;99156.19;5027192;28;20125;-68
2022/04/09 01:11:11;;;;;;;17.80;8.35;;;;;;;11.03;nan;99159.31;5011785;28;20041;-68
2022/04/09 01:13:37;;;;;;;14.57;8.57;;;;;;;11.02;nan;99147.22;5012819;28;20130;-68
2022/04/09 01:16:03;;;;;;;14.65;8.05;;;;;;;11.03;nan;99142.72;5012137;28;20044;-69
2022/04/09 01:18:30;;;;;;;14.07;8.10;;;;;;;11.01;nan;99140.38;5023536;28;20030;-68
2022/04/09 01:21:00;;;;;;;15.05;8.57;;;;;;;11.02;nan;99133.25;5008621;28;20492;-70
2022/04/09 01:23:27;;;;;;;14.80;8.27;;;;;;;11.01;nan;99129.84;5011256;28;20488;-68
2022/04/09 01:25:55;;;;;;;14.63;7.93;;;;;;;11.09;nan;99141.72;5020816;28;20025;-67
2022/04/09 01:28:21;;;;;;;15.40;8.23;;;;;;;11.07;nan;99117.47;5022085;28;20034;-69
2022/04/09 01:30:46;;;;;;;16.48;8.07;;;;;;;11.10;nan;99119.56;5011170;28;20044;-69
2022/04/09 01:33:19;;;;;;;13.55;8.45;;;;;;;11.03;nan;99111.91;5009997;28;20128;-68
2022/04/09 01:35:45;;;;;;;13.30;7.75;;;;;;;11.15;nan;99129.34;5001831;28;20104;-68
2022/04/09 01:38:11;;;;;;;12.85;7.90;;;;;;;11.12;nan;99114.84;5009892;28;20044;-69
2022/04/09 01:40:37;;;;;;;11.85;7.55;;;;;;;11.20;nan;99124.84;5010864;28;20026;-70
2022/04/09 01:43:03;;;;;;;11.60;7.15;;;;;;;11.15;nan;99114.31;5011376;28;20026;-68
2022/04/09 01:45:29;;;;;;;14.60;7.25;;;;;;;11.18;nan;99107.72;5010952;28;20046;-69
2022/04/09 01:47:55;;;;;;;13.75;7.57;;;;;;;11.24;nan;99120.66;5011587;28;20391;-68
2022/04/09 01:50:21;;;;;;;11.93;7.18;;;;;;;11.28;nan;99116.47;5010959;28;20041;-70
2022/04/09 01:52:47;;;;;;;14.63;7.30;;;;;;;11.32;nan;99127.25;5010969;28;20038;-70
2022/04/09 01:55:12;;;;;;;13.98;6.75;;;;;;;11.33;nan;99120.16;5012774;28;20068;-69
2022/04/09 01:57:38;;;;;;;12.55;6.50;;;;;;;11.32;nan;99116.72;5008847;28;20507;-69
2022/04/09 02:00:05;;;;;;;11.80;6.25;;;;;;;11.40;nan;99123.34;5012186;28;20042;-69
2022/04/09 02:02:31;;;;;;;10.73;6.88;;;;;;;11.39;nan;99122.53;5000760;28;20033;-69
2022/04/09 02:04:56;;;;;;;13.52;7.00;;;;;;;11.36;nan;99117.00;5009559;28;20041;-69
2022/04/09 02:07:22;;;;;;;10.20;6.45;;;;;;;11.43;nan;99123.59;5008692;28;20057;-69
2022/04/09 02:09:48;;;;;;;16.55;6.55;;;;;;;11.36;nan;99112.50;5010506;28;20738;-68
2022/04/09 02:12:14;;;;;;;8.40;5.65;;;;;;;11.43;nan;99117.53;5010748;28;20048;-68
2022/04/09 02:14:39;;;;;;;10.02;6.30;;;;;;;11.41;nan;99111.72;5010040;28;20588;-67
2022/04/09 02:17:05;;;;;;;9.02;6.25;;;;;;;11.45;nan;99123.34;5026069;28;20037;-68
2022/04/09 02:19:30;;;;;;;10.55;6.10;;;;;;;11.31;nan;99094.06;5010382;28;20068;-68
2022/04/09 02:21:56;;;;;;;11.20;6.20;;;;;;;11.42;nan;99108.84;5010773;28;20041;-68
2022/04/09 02:24:21;;;;;;;13.43;6.00;;;;;;;11.49;nan;99127.00;4999018;28;20030;-68
2022/04/09 02:26:46;;;;;;;8.68;5.40;;;;;;;11.43;nan;99114.91;5008982;28;20400;-68
2022/04/09 02:29:12;;;;;;;9.75;5.68;;;;;;;11.53;nan;99124.66;5010540;28;20033;-68
2022/04/09 02:31:38;;;;;;;8.05;5.45;;;;;;;11.43;nan;99097.22;5007803;28;20061;-68
2022/04/09 02:34:04;;;;;;;9.48;5.88;;;;;;;11.53;nan;99112.28;5025516;28;20040;-68
2022/04/09 02:36:31;;;;;;;9.80;5.72;;;;;;;11.54;nan;99099.88;5010100;28;20041;-67
2022/04/09 02:38:57;;;;;;;8.15;5.53;;;;;;;11.54;nan;99094.59;5012186;28;20069;-68
2022/04/09 02:41:23;;;;;;;10.63;5.82;;;;;;;11.53;nan;99096.44;5013469;28;20483;-70
2022/04/09 02:43:48;;;;;;;9.05;5.38;;;;;;;11.52;nan;99083.53;5011085;28;20077;-71
2022/04/09 02:46:15;;;;;;;7.45;4.97;;;;;;;11.52;nan;99091.44;4996542;28;20035;-69
2022/04/09 02:48:41;;;;;;;7.95;4.85;;;;;;;11.56;nan;99093.28;5011693;28;20565;-69
2022/04/09 02:51:06;;;;;;;9.23;5.20;;;;;;;11.54;nan;99090.13;5014532;28;20034;-69
2022/04/09 02:53:32;;;;;;;11.00;5.70;;;;;;;11.50;nan;99091.72;5025592;28;20046;-69
2022/04/09 02:55:57;;;;;;;10.60;4.90;;;;;;;11.53;nan;99093.81;5010894;28;20084;-69
2022/04/09 02:58:23;;;;;;;8.13;4.78;;;;;;;11.42;nan;99071.94;5009983;28;20033;-69
2022/04/09 03:00:48;;;;;;;9.73;4.85;;;;;;;11.49;nan;99083.03;5010555;28;20487;-69
2022/04/09 03:03:14;;;;;;;10.98;5.00;;;;;;;11.40;nan;99065.34;5009916;28;20034;-69
2022/04/09 03:05:39;;;;;;;9.60;4.93;;;;;;;11.39;nan;99069.03;5010250;28;20049;-69
2022/04/09 03:08:04;;;;;;;10.15;4.68;;;;;;;11.33;nan;99062.19;5010096;28;20034;-69
2022/04/09 03:10:30;;;;;;;9.15;5.00;;;;;;;11.45;nan;99075.91;5009264;28;20068;-70
2022/04/09 03:12:56;;;;;;;8.50;4.35;;;;;;;11.43;nan;99072.72;5010167;28;20038;-70
2022/04/09 03:15:22;;;;;;;7.15;4.25;;;;;;;11.41;nan;99072.97;5009794;28;20034;-69
2022/04/09 03:17:47;;;;;;;7.60;4.50;;;;;;;11.27;nan;99042.94;5008458;28;20040;-70
2022/04/09 03:20:12;;;;;;;8.07;4.55;;;;;;;11.35;nan;99060.88;5024977;28;20075;-69
2022/04/09 03:22:46;;;;;;;6.05;4.13;;;;;;;11.45;nan;99073.25;5010735;28;20545;-68
2022/04/09 03:25:12;;;;;;;6.05;4.15;;;;;;;11.41;nan;99069.56;5025113;28;20038;-70
2022/04/09 03:27:38;;;;;;;8.43;4.50;;;;;;;11.40;nan;99066.13;5009235;28;20072;-68
2022/04/09 03:30:05;;;;;;;9.82;4.00;;;;;;;11.44;nan;99069.03;5010170;28;20037;-70
2022/04/09 03:32:30;;;;;;;6.00;3.55;;;;;;;11.41;nan;99057.16;5008942;28;20057;-68
2022/04/09 03:34:57;;;;;;;7.70;4.38;;;;;;;11.44;nan;99067.19;5009578;28;20124;-69
2022/04/09 03:37:22;;;;;;;7.82;3.78;;;;;;;11.53;nan;99061.41;5009677;28;20034;-69
2022/04/09 03:39:49;;;;;;;6.82;3.88;;;;;;;11.56;nan;99058.22;5010172;28;20030;-68
2022/04/09 03:42:15;;;;;;;6.65;3.75;;;;;;;11.51;nan;99051.09;5024952;28;20368;-68
2022/04/09 03:44:40;;;;;;;6.00;3.72;;;;;;;11.38;nan;99031.34;5010654;28;20069;-69
2022/04/09 03:47:06;;;;;;;6.80;3.80;;;;;;;11.49;nan;99048.75;5011863;28;20038;-70
2022/04/09 03:49:32;;;;;;;8.95;3.83;;;;;;;11.49;nan;99048.75;5012870;28;20116;-69
2022/04/09 03:51:58;;;;;;;5.40;3.70;;;;;;;11.50;nan;99050.31;5013442;28;20419;-69
2022/04/09 03:54:25;;;;;;;9.35;3.88;;;;;;;11.54;nan;99053.22;5012261;28;20118;-69
2022/04/09 03:56:51;;;;;;;6.88;3.60;;;;;;;11.63;nan;99058.75;5011556;28;20033;-71
2022/04/09 03:59:17;;;;;;;6.53;3.33;;;;;;;11.52;nan;99047.44;5012514;28;20407;-68
2022/04/09 04:01:46;;;;;;;11.85;3.90;;;;;;;11.48;nan;99039.25;5013013;28;20069;-69
2022/04/09 04:04:11;;;;;;;4.90;3.47;;;;;;;11.56;nan;99050.31;5012425;28;20121;-68
2022/04/09 04:06:37;;;;;;;10.25;3.75;;;;;;;11.64;nan;99066.41;5010877;28;20069;-70
2022/04/09 04:09:03;;;;;;;8.90;3.78;;;;;;;11.63;nan;99058.75;5012984;28;20466;-69
2022/04/09 04:11:29;;;;;;;6.32;3.53;;;;;;;11.46;nan;99035.28;5012402;28;20498;-69
2022/04/09 04:13:54;;;;;;;6.03;3.13;;;;;;;11.68;nan;99061.38;5012988;28;20037;-69
2022/04/09 04:16:19;;;;;;;9.00;3.63;;;;;;;11.69;nan;99061.13;5012386;28;20184;-69
2022/04/09 04:18:45;;;;;;;6.00;3.50;;;;;;;11.72;nan;99067.72;5010556;28;20034;-70
2022/04/09 04:21:11;;;;;;;6.60;4.22;;;;;;;11.68;nan;99059.56;5027149;28;20044;-69
2022/04/09 04:23:36;;;;;;;6.00;4.25;;;;;;;11.76;nan;99066.13;5011794;28;20467;-69
2022/04/09 04:26:02;;;;;;;8.20;4.47;;;;;;;11.66;nan;99048.47;5010663;28;20041;-69
2022/04/09 04:28:28;;;;;;;7.93;4.15;;;;;;;11.72;nan;99054.53;5011314;28;20034;-69
2022/04/09 04:30:54;;;;;;;9.60;5.18;;;;;;;11.80;nan;99069.03;5011092;28;20099;-69
2022/04/09 04:33:19;;;;;;;9.63;4.88;;;;;;;11.70;nan;99043.44;5011342;28;20038;-68
2022/04/09 04:35:44;;;;;;;6.63;3.92;;;;;;;11.79;nan;99052.41;5021838;28;20607;-69
2022/04/09 04:38:11;;;;;;;12.25;4.28;;;;;;;11.80;nan;99053.19;5020468;28;20562;-68
2022/04/09 04:40:37;;;;;;;7.93;3.20;;;;;;;11.82;nan;99043.19;5010556;28;20038;-69
2022/04/09 04:43:03;;;;;;;5.43;3.35;;;;;;;11.87;nan;99053.75;5009227;28;20041;-68
2022/04/09 04:45:29;;;;;;;7.13;3.78;;;;;;;11.87;nan;99045.84;5011201;28;20112;-68
2022/04/09 04:47:55;;;;;;;8.25;3.15;;;;;;;11.93;nan;99044.00;5025810;28;20037;-68
2022/04/09 04:50:21;;;;;;;6.10;2.80;;;;;;;11.86;nan;99031.03;5010679;28;20033;-68
2022/04/09 04:52:47;;;;;;;5.30;3.10;;;;;;;11.96;nan;99038.97;5011596;28;20026;-68
2022/04/09 04:55:14;;;;;;;6.38;3.35;;;;;;;11.97;nan;99034.47;5008274;28;20044;-68
2022/04/09 04:57:53;;;;;;;9.18;3.10;;;;;;;12.04;nan;99046.34;5011627;28;20107;-68
2022/04/09 05:00:23;;;;;;;5.13;3.30;;;;;;;12.07;nan;99039.75;5011879;28;20033;-68
2022/04/09 05:02:51;;;;;;;4.93;2.78;;;;;;;12.03;nan;99028.13;5022325;28;20037;-68
2022/04/09 05:05:16;;;;;;;7.68;3.10;;;;;;;12.09;nan;99041.06;5024860;28;20050;-70
2022/04/09 05:07:42;;;;;;;6.70;2.78;;;;;;;12.12;nan;99037.88;5006988;28;20052;-69
2022/04/09 05:10:10;;;;;;;8.05;3.15;;;;;;;12.12;nan;99035.22;5011448;28;20432;-69
2022/04/09 05:12:37;;;;;;;8.93;3.08;;;;;;;12.16;nan;99043.38;5013915;28;20176;-69
2022/04/09 05:15:05;;;;;;;5.10;2.78;;;;;;;12.09;nan;99022.59;5011619;28;20045;-70
2022/04/09 05:17:30;;;;;;;8.05;2.80;;;;;;;12.18;nan;99037.84;5010996;28;20036;-67
2022/04/09 05:19:56;;;;;;;10.05;2.83;;;;;;;12.02;nan;99000.97;5025654;28;20056;-69
2022/04/09 05:22:21;;;;;;;5.22;3.10;;;;;;;12.31;nan;99037.28;5009861;28;20042;-70
2022/04/09 05:24:47;;;;;;;8.95;2.95;;;;;;;12.34;nan;99024.34;5013275;28;20034;-70
2022/04/09 05:27:12;;;;;;;8.82;3.10;;;;;;;12.44;nan;99033.28;5010906;28;20042;-69
2022/04/09 05:29:38;;;;;;;10.48;2.63;;;;;;;12.47;nan;99019.53;5011935;28;20037;-69
2022/04/09 05:32:05;;;;;;;6.05;2.70;;;;;;;12.61;nan;99012.59;5011177;28;20042;-68
2022/04/09 05:34:31;;;;;;;4.18;2.50;;;;;;;12.59;nan;98990.94;5008985;28;20479;-69
2022/04/09 05:36:56;;;;;;;5.28;2.60;;;;;;;12.94;nan;99029.59;5006603;28;20050;-69
2022/04/09 05:39:22;;;;;;;5.10;2.63;;;;;;;12.94;nan;99010.31;5008736;28;20041;-69
2022/04/09 05:41:47;;;;;;;4.88;2.50;;;;;;;13.08;nan;99011.25;5006766;28;20038;-69
2022/04/09 05:44:13;;;;;;;7.68;2.53;;;;;;;13.22;nan;99018.56;4994567;28;20028;-69
2022/04/09 05:46:38;;;;;;;5.70;2.40;;;;;;;13.34;nan;99025.13;5010881;28;20040;-69
2022/04/09 05:49:03;;;;;;;6.90;2.55;;;;;;;13.45;nan;99017.09;5009513;28;20030;-68
2022/04/09 05:51:30;;;;;;;7.38;2.25;;;;;;;13.55;nan;99024.94;5009788;28;20041;-68
2022/04/09 05:53:55;;;;;;;9.18;2.90;;;;;;;13.63;nan;99031.50;5011072;28;20029;-68
2022/04/09 05:56:22;;;;;;;5.60;2.10;;;;;;;13.69;nan;99019.78;4970385;28;20416;-67
2022/04/09 05:58:47;;;;;;;5.72;2.42;;;;;;;13.60;nan;98995.81;4956249;28;20476;-69
2022/04/09 06:01:13;;;;;;;6.10;2.50;;;;;;;13.78;nan;99023.41;4971363;28;20065;-67
2022/04/09 06:03:39;;;;;;;4.63;2.20;;;;;;;13.83;nan;99018.06;4960564;28;20041;-67
2022/04/09 06:06:05;;;;;;;5.75;2.05;;;;;;;13.80;nan;99010.69;4952400;28;20673;-68
2022/04/09 06:08:32;;;;;;;4.93;2.10;;;;;;;13.89;nan;99013.53;4954081;28;20033;-72
2022/04/09 06:10:58;;;;;;;7.18;2.20;;;;;;;13.96;nan;99024.56;4956630;28;21476;-70
2022/04/09 06:13:24;;;;;;;4.40;1.90;;;;;;;13.99;nan;99019.47;4952967;28;20125;-72
2022/04/09 06:15:49;;;;;;;9.68;2.30;;;;;;;13.95;nan;99009.75;4958949;28;20038;-71
2022/04/09 06:18:15;;;;;;;5.57;2.08;;;;;;;13.94;nan;99010.81;4958881;28;20030;-73
2022/04/09 06:20:40;;;;;;;4.93;2.00;;;;;;;13.98;nan;99009.97;4960014;28;20038;-72
2022/04/09 06:23:06;;;;;;;4.55;1.88;;;;;;;14.06;nan;99015.72;4960624;28;20032;-74
2022/04/09 06:25:32;;;;;;;6.15;2.20;;;;;;;14.15;nan;99017.47;4973454;28;20851;-73
2022/04/09 06:27:58;;;;;;;6.38;2.30;;;;;;;14.12;nan;99004.78;4967078;28;20034;-71
2022/04/09 06:30:23;;;;;;;3.97;2.15;;;;;;;14.17;nan;99004.72;4967167;28;20038;-71
2022/04/09 06:32:49;;;;;;;3.85;1.67;;;;;;;14.30;nan;99011.19;4963176;28;20045;-71
2022/04/09 06:35:14;;;;;;;5.50;1.90;;;;;;;14.37;nan;99024.09;4957550;28;20057;-73
2022/04/09 06:37:40;;;;;;;5.28;2.10;;;;;;;14.33;nan;99005.34;4959417;28;20037;-71
2022/04/09 06:40:08;;;;;;;4.30;1.98;;;;;;;14.45;nan;99013.66;4957272;28;20887;-72
2022/04/09 06:42:34;;;;;;;5.05;1.90;;;;;;;14.45;nan;99008.34;4956031;28;20034;-72
2022/04/09 06:45:00;;;;;;;4.53;2.03;;;;;;;14.51;nan;99011.75;4958263;28;20033;-70
2022/04/09 06:47:25;;;;;;;5.90;2.00;;;;;;;14.50;nan;98998.78;4958239;28;20125;-71
2022/04/09 06:49:51;;;;;;;4.70;1.75;;;;;;;14.64;nan;99003.09;4971622;28;20044;-72
2022/04/09 06:52:16;;;;;;;6.60;1.50;;;;;;;14.79;nan;99025.19;4957811;28;20054;-73
2022/04/09 06:54:42;;;;;;;6.95;2.03;;;;;;;14.83;nan;99004.97;4971852;28;20039;-72
2022/04/09 06:57:07;;;;;;;5.45;1.90;;;;;;;14.99;nan;99016.94;4956887;28;20504;-71
2022/04/09 06:59:33;;;;;;;6.65;1.45;;;;;;;15.10;nan;99004.31;4954444;28;20472;-71
2022/04/09 07:01:58;;;;;;;3.72;1.75;;;;;;;15.20;nan;99003.38;4972040;28;20029;-73
2022/04/09 07:04:24;;;;;;;8.77;2.17;;;;;;;15.38;nan;99018.47;4956770;28;20040;-72
2022/04/09 07:06:49;;;;;;;2.85;1.75;;;;;;;15.42;nan;99011.50;4956037;28;20033;-73
2022/04/09 07:09:15;;;;;;;4.93;1.60;;;;;;;15.49;nan;99011.91;4955036;28;20045;-71
2022/04/09 07:11:40;;;;;;;8.60;2.10;;;;;;;15.60;nan;99017.03;4955120;28;20038;-72
2022/04/09 07:14:05;;;;;;;5.55;1.75;;;;;;;15.59;nan;99005.66;4971207;28;20038;-72
2022/04/09 07:16:31;;;;;;;4.47;2.05;;;;;;;15.66;nan;99015.88;4958008;28;20042;-72
2022/04/09 07:18:57;;;;;;;3.53;1.65;;;;;;;15.77;nan;99027.91;4959379;28;20031;-71
2022/04/09 07:21:22;;;;;;;9.38;1.98;;;;;;;15.79;nan;99028.41;4961475;28;20068;-70
2022/04/09 07:23:47;;;;;;;3.78;1.60;;;;;;;15.90;nan;99029.81;4975465;28;20044;-74
2022/04/09 07:26:15;;;;;;;4.05;1.63;;;;;;;15.95;nan;99013.78;4967895;28;20476;-71
2022/04/09 07:28:40;;;;;;;7.65;1.95;;;;;;;16.08;nan;99025.47;4960334;28;20063;-72
2022/04/09 07:31:06;;;;;;;4.03;1.80;;;;;;;16.16;nan;99022.16;4959126;28;20558;-73
2022/04/09 07:33:31;;;;;;;3.20;1.95;;;;;;;16.18;nan;99011.22;4964566;28;20071;-70
2022/04/09 07:36:06;;;;;;;6.50;2.23;;;;;;;16.34;nan;99031.09;4958954;28;20045;-74
2022/04/09 07:38:31;;;;;;;8.52;1.80;;;;;;;16.11;nan;98969.16;4972785;28;20298;-73
2022/04/09 07:40:57;;;;;;;7.75;2.63;;;;;;;16.48;nan;99017.78;4975286;28;20077;-74
2022/04/09 07:43:22;;;;;;;9.57;2.35;;;;;;;16.55;nan;99020.06;4960731;28;20495;-73
2022/04/09 07:45:48;;;;;;;8.02;1.95;;;;;;;16.57;nan;99015.22;4961432;28;20442;-73
2022/04/09 07:48:13;;;;;;;4.38;2.03;;;;;;;16.64;nan;99014.81;4958290;28;20502;-72
2022/04/09 07:50:39;;;;;;;4.40;1.80;;;;;;;16.62;nan;99007.16;4955886;28;21751;-71
2022/04/09 07:53:05;;;;;;;5.18;1.90;;;;;;;16.65;nan;99011.84;4958712;28;20038;-73
2022/04/09 07:55:30;;;;;;;5.47;1.90;;;;;;;16.66;nan;99000.13;4988056;28;20040;-74
2022/04/09 07:57:56;;;;;;;5.15;2.15;;;;;;;16.71;nan;99008.00;5009256;28;20041;-73
2022/04/09 08:00:23;;;;;;;8.77;2.55;;;;;;;16.79;nan;99017.19;4994233;28;20046;-73
2022/04/09 08:02:48;;;;;;;6.55;2.65;;;;;;;16.68;nan;98991.88;5010715;28;20029;-73
2022/04/09 08:05:15;;;;;;;6.28;2.58;;;;;;;16.70;nan;98993.13;5010615;28;20115;-73
2022/04/09 08:07:41;;;;;;;6.28;2.22;;;;;;;16.93;nan;99009.16;5003458;28;20404;-72
2022/04/09 08:10:08;;;;;;;6.25;2.17;;;;;;;17.00;nan;99012.19;5000725;28;20041;-72
2022/04/09 08:12:33;;;;;;;5.80;2.03;;;;;;;17.00;nan;99001.56;5009446;28;20038;-74
2022/04/09 08:14:59;;;;;;;12.55;2.42;;;;;;;17.08;nan;99008.78;5008668;28;20069;-74
2022/04/09 08:17:25;;;;;;;7.43;2.50;;;;;;;17.25;nan;99018.00;5011050;28;20034;-74
2022/04/09 08:19:50;;;;;;;6.60;2.35;;;;;;;17.15;nan;98998.53;5014901;28;20527;-74
2022/04/09 08:22:17;;;;;;;6.32;2.67;;;;;;;17.29;nan;99011.75;5013022;28;20046;-74
2022/04/09 08:24:45;;;;;;;7.95;2.20;;;;;;;17.30;nan;99013.31;5012255;28;20034;-73
2022/04/09 08:27:11;;;;;;;7.10;2.50;;;;;;;17.27;nan;99000.63;5012661;28;20053;-72
2022/04/09 08:29:36;;;;;;;8.23;1.95;;;;;;;17.29;nan;99011.00;5008506;28;20037;-68
2022/04/09 08:32:04;;;;;;;6.30;2.17;;;;;;;17.33;nan;99018.03;5011920;28;20030;-68
2022/04/09 08:34:33;;;;;;;6.30;2.20;;;;;;;17.37;nan;99026.22;5001374;28;20043;-68
2022/04/09 08:36:59;;;;;;;5.95;2.10;;;;;;;17.27;nan;99007.84;5005506;28;20060;-69
2022/04/09 08:39:24;;;;;;;8.35;2.33;;;;;;;17.13;nan;98997.25;5008761;28;20042;-67
2022/04/09 08:41:53;;;;;;;6.72;2.25;;;;;;;17.37;nan;99032.31;5011368;28;20057;-67
2022/04/09 08:44:18;;;;;;;8.07;2.50;;;;;;;17.33;nan;99022.56;5010396;28;20447;-68
2022/04/09 08:46:46;;;;;;;5.82;2.10;;;;;;;17.37;nan;99031.53;5010822;28;20041;-69
2022/04/09 08:49:12;;;;;;;8.50;2.05;;;;;;;17.31;nan;99024.75;5011690;28;20044;-68
2022/04/09 08:51:37;;;;;;;7.53;1.85;;;;;;;17.38;nan;99031.25;5010294;28;20065;-67
2022/04/09 08:54:04;;;;;;;6.30;1.98;;;;;;;17.39;nan;99030.13;5011341;28;20113;-67
2022/04/09 08:56:33;;;;;;;7.72;2.45;;;;;;;17.42;nan;99026.84;5010583;28;20064;-69
2022/04/09 08:58:59;;;;;;;4.28;2.17;;;;;;;17.43;nan;99019.69;5011404;28;20034;-68
2022/04/09 09:01:25;;;;;;;5.32;2.03;;;;;;;17.50;nan;99029.88;5010688;28;20551;-68
2022/04/09 09:03:51;;;;;;;12.57;2.60;;;;;;;17.49;nan;99015.00;5008992;28;20133;-66
2022/04/09 09:06:24;;;;;;;10.88;2.50;;;;;;;17.61;nan;99031.22;5010537;28;20044;-67
2022/04/09 09:08:49;;;;;;;7.53;2.50;;;;;;;17.57;nan;99016.94;5011862;28;20038;-69
2022/04/09 09:11:16;;;;;;;7.30;2.30;;;;;;;17.60;nan;99013.69;5011480;28;20056;-68
2022/04/09 09:13:52;;;;;;;9.00;2.20;;;;;;;17.80;nan;99026.47;5011876;28;20519;-69
2022/04/09 09:16:25;;;;;;;9.15;2.65;;;;;;;17.88;nan;99030.25;5010108;28;20042;-65
2022/04/09 09:18:51;;;;;;;5.80;2.15;;;;;;;18.02;nan;99030.16;5011334;28;20030;-68
2022/04/09 09:21:18;;;;;;;6.68;1.98;;;;;;;18.14;nan;99021.59;5011568;28;20042;-68
2022/04/09 09:23:43;;;;;;;10.05;2.22;;;;;;;18.25;nan;99018.34;5011543;28;20498;-68
2022/04/09 09:26:09;;;;;;;5.80;1.92;;;;;;;18.50;nan;99022.16;5011307;28;20048;-67
2022/04/09 09:28:35;;;;;;;7.47;2.05;;;;;;;18.65;nan;99023.59;5009256;28;20042;-67
2022/04/09 09:31:02;;;;;;;8.35;2.55;;;;;;;18.66;nan;99019.81;5012461;28;20077;-66
2022/04/09 09:33:28;;;;;;;6.70;2.10;;;;;;;18.69;nan;99019.19;5008600;28;20045;-68
2022/04/09 09:35:56;;;;;;;6.32;2.13;;;;;;;18.80;nan;99018.94;5010422;28;20049;-68
2022/04/09 09:38:29;;;;;;;8.65;2.58;;;;;;;18.81;nan;99023.16;5020868;28;20114;-68
2022/04/09 09:40:56;;;;;;;10.43;2.22;;;;;;;18.90;nan;99024.75;5011805;28;20029;-69
2022/04/09 09:43:24;;;;;;;7.50;2.30;;;;;;;18.93;nan;99023.31;5010707;28;20132;-69
2022/04/09 09:45:50;;;;;;;13.82;2.60;;;;;;;18.88;nan;99026.16;5011280;28;20116;-68
2022/04/09 09:48:35;;;;;;;5.47;2.00;;;;;;;18.66;nan;98990.50;5010460;28;20054;-69
2022/04/09 09:51:01;;;;;;;8.85;2.80;;;;;;;18.82;nan;99030.06;5010935;28;20080;-68
2022/04/09 09:53:31;;;;;;;7.28;2.00;;;;;;;18.82;nan;99041.53;5006506;28;20073;-69
2022/04/09 09:55:56;;;;;;;6.70;2.28;;;;;;;18.75;nan;99029.72;5009637;28;20042;-68
2022/04/09 09:58:23;;;;;;;5.63;1.58;;;;;;;18.74;nan;99030.81;5002757;28;20045;-70
2022/04/09 10:00:49;;;;;;;8.05;2.05;;;;;;;18.70;nan;99028.00;5008390;28;20060;-70
2022/04/09 10:03:16;;;;;;;5.82;2.10;;;;;;;18.67;nan;99028.59;5010745;28;20036;-70
2022/04/09 10:05:42;;;;;;;11.50;2.00;;;;;;;18.62;nan;99029.53;5008873;28;20033;-69
2022/04/09 10:08:08;;;;;;;4.38;1.88;;;;;;;18.53;nan;99011.97;5012616;28;20033;-68
2022/04/09 10:10:38;;;;;;;7.20;2.13;;;;;;;18.58;nan;99035.81;5009666;28;20045;-67
2022/04/09 10:13:04;;;;;;;4.30;1.75;;;;;;;18.44;nan;99023.41;5011419;28;20045;-69
2022/04/09 10:15:30;;;;;;;6.72;2.00;;;;;;;18.48;nan;99026.22;5021623;28;20064;-68
2022/04/09 10:17:57;;;;;;;5.93;1.60;;;;;;;18.39;nan;99030.75;5009081;28;20084;-68
2022/04/09 10:20:27;;;;;;;4.20;1.95;;;;;;;18.39;nan;99025.41;5009430;28;20029;-67
2022/04/09 10:22:58;;;;;;;7.82;1.92;;;;;;;18.42;nan;99032.81;5009767;28;20057;-68
2022/04/09 10:25:32;;;;;;;5.13;1.70;;;;;;;18.40;nan;99038.44;5009855;28;20034;-68
2022/04/09 10:28:02;;;;;;;8.23;1.80;;;;;;;18.37;nan;99039.06;5010026;28;20034;-67
2022/04/09 10:30:30;;;;;;;8.57;2.63;;;;;;;18.36;nan;99045.47;5024771;28;20049;-68
2022/04/09 10:32:58;;;;;;;5.55;2.35;;;;;;;18.34;nan;99045.03;5010052;28;20041;-67
2022/04/09 10:35:27;;;;;;;7.97;2.42;;;;;;;18.32;nan;99039.22;5023949;28;20179;-67
2022/04/09 10:38:07;;;;;;;6.17;2.30;;;;;;;18.31;nan;99042.97;5012033;28;20104;-68
2022/04/09 10:40:57;;;;;;;6.47;1.88;;;;;;;18.30;nan;99040.63;5011813;28;20037;-69
2022/04/09 10:43:22;;;;;;;8.48;2.38;;;;;;;18.27;nan;99042.03;5008860;28;20038;-68
2022/04/09 10:46:11;;;;;;;8.52;2.47;;;;;;;18.24;nan;99039.97;5012105;28;20443;-66
2022/04/09 10:48:42;;;;;;;9.82;2.20;;;;;;;17.90;nan;98996.13;5013390;28;20034;-69
2022/04/09 10:51:11;;;;;;;9.52;1.92;;;;;;;18.19;nan;99037.44;5011960;28;20064;-67
2022/04/09 10:53:51;;;;;;;6.75;2.15;;;;;;;18.17;nan;99037.75;5014765;28;20034;-68
2022/04/09 10:56:24;;;;;;;8.65;2.22;;;;;;;18.14;nan;99037.59;5015304;28;20044;-67
2022/04/09 10:59:06;;;;;;;8.13;2.15;;;;;;;18.12;nan;99039.75;5013889;28;20087;-67
2022/04/09 11:01:46;;;;;;;7.97;2.25;;;;;;;18.10;nan;99040.09;5012309;28;20038;-69
2022/04/09 11:04:36;;;;;;;9.93;2.92;;;;;;;18.10;nan;99036.63;5012831;28;20062;-69
2022/04/09 11:07:07;;;;;;;5.88;2.00;;;;;;;18.09;nan;99040.38;5013613;28;20065;-68
2022/04/09 11:10:11;;;;;;;9.32;2.17;;;;;;;18.05;nan;99043.69;5018078;28;20034;-68
2022/04/09 11:12:39;;;;;;;7.40;2.25;;;;;;;18.05;nan;99040.19;5013854;28;20037;-68
2022/04/09 11:15:14;;;;;;;9.63;2.33;;;;;;;17.97;nan;99039.09;5012710;28;20487;-68
2022/04/09 11:17:48;;;;;;;7.93;2.20;;;;;;;17.94;nan;99037.03;5015127;28;20060;-68
2022/04/09 11:20:20;;;;;;;8.88;2.13;;;;;;;17.95;nan;99041.25;5013819;28;20037;-68
2022/04/09 11:22:54;;;;;;;5.65;2.25;;;;;;;17.93;nan;99046.09;5013414;28;20549;-68
2022/04/09 11:25:27;;;;;;;10.48;2.60;;;;;;;17.91;nan;99042.19;5006885;28;20091;-68
2022/04/09 11:28:04;;;;;;;8.52;2.50;;;;;;;17.84;nan;99021.34;5013366;28;20045;-68
2022/04/09 11:30:29;;;;;;;9.43;2.30;;;;;;;17.80;nan;99015.00;5011250;28;20107;-67
2022/04/09 11:32:55;;;;;;;8.27;2.40;;;;;;;17.90;nan;99029.97;5014780;28;20120;-67
2022/04/09 11:35:24;;;;;;;8.32;2.20;;;;;;;17.82;nan;99021.63;5014060;28;20518;-67
2022/04/09 11:37:51;;;;;;;7.40;2.35;;;;;;;17.87;nan;99034.03;5012398;28;20029;-68
2022/04/09 11:40:21;;;;;;;9.32;2.88;;;;;;;17.88;nan;99037.47;5028158;28;20038;-69
2022/04/09 11:42:50;;;;;;;12.35;2.33;;;;;;;17.79;nan;99035.53;5012514;28;20049;-68
2022/04/09 11:45:20;;;;;;;;;;;;;;;17.71;nan;99036.25;5013762;28;20050;-67
2022/04/09 11:47:45;;;;;;;8.40;2.38;;;;;;;17.60;nan;99045.63;5012557;28;19921;-68
2022/04/09 11:50:13;;;;;;;10.85;2.20;;;;;;;17.46;nan;99043.03;5009855;28;20052;-68